Time;durP1;ratioP1;P1;durP2;ratioP2;P2;SDS_P1;SDS_P2;PMS_P1;PMS_P2;Temp;Humidity;BMP_temperature;BMP_pressure;BME280_temperature;BME280_humidity;BME280_pressure;Samples;Min_cycle;Max_cycle;Signal;HPM_P1;HPM_P2
2022/12/21 00:01:43;;;;;;;0.20;0.10;;;;;;;;;;4999019;28;20046;-78
2022/12/21 00:04:10;;;;;;;0.20;0.10;;;;;;;;;;4998138;28;20101;-79
2022/12/21 00:06:37;;;;;;;0.20;0.10;;;;;;;;;;5007657;28;20103;-79
2022/12/21 00:09:04;;;;;;;0.20;0.10;;;;;;;;;;5028887;28;20044;-78
2022/12/21 00:11:31;;;;;;;0.20;0.10;;;;;;;;;;5029354;28;20034;-79
2022/12/21 00:13:59;;;;;;;0.20;0.10;;;;;;;;;;5015584;28;20128;-79
2022/12/21 00:16:27;;;;;;;0.20;0.10;;;;;;;;;;5019123;28;20044;-78
2022/12/21 00:18:53;;;;;;;0.20;0.10;;;;;;;;;;5010693;28;20072;-79
2022/12/21 00:21:20;;;;;;;0.20;0.10;;;;;;;;;;5018900;28;20049;-79
2022/12/21 00:23:47;;;;;;;0.20;0.10;;;;;;;;;;5015492;28;20045;-77
2022/12/21 00:26:15;;;;;;;0.20;0.10;;;;;;;;;;5013868;28;20510;-78
2022/12/21 00:28:41;;;;;;;0.20;0.10;;;;;;;;;;5012914;28;20029;-78
2022/12/21 00:31:08;;;;;;;0.20;0.20;;;;;;;;;;5016105;28;20080;-78
2022/12/21 00:33:35;;;;;;;0.20;0.10;;;;;;;;;;4998893;28;20499;-78
2022/12/21 00:36:01;;;;;;;0.20;0.10;;;;;;;;;;5020977;28;20051;-78
2022/12/21 00:38:27;;;;;;;0.20;0.10;;;;;;;;;;4997699;28;20104;-78
2022/12/21 00:40:57;;;;;;;0.20;0.10;;;;;;;;;;5004721;28;20034;-78
2022/12/21 00:43:23;;;;;;;0.20;0.10;;;;;;;;;;5012003;28;20051;-79
2022/12/21 00:45:49;;;;;;;0.20;0.10;;;;;;;;;;5028090;28;20061;-79
2022/12/21 00:48:15;;;;;;;0.20;0.10;;;;;;;;;;5035392;28;20044;-77
2022/12/21 00:50:41;;;;;;;0.30;0.30;;;;;;;;;;5016470;28;20050;-78
2022/12/21 00:53:08;;;;;;;0.20;0.10;;;;;;;;;;5010906;28;20033;-78
2022/12/21 00:55:34;;;;;;;0.20;0.20;;;;;;;;;;5012214;28;20052;-77
2022/12/21 00:58:01;;;;;;;0.20;0.10;;;;;;;;;;5022228;28;20045;-76
2022/12/21 01:00:27;;;;;;;0.20;0.10;;;;;;;;;;5028698;28;20453;-77
2022/12/21 01:02:53;;;;;;;0.20;0.10;;;;;;;;;;5033351;28;20053;-78
2022/12/21 01:05:20;;;;;;;0.20;0.20;;;;;;;;;;5018001;28;20109;-78
2022/12/21 01:07:46;;;;;;;0.20;0.10;;;;;;;;;;5014132;28;20121;-79
2022/12/21 01:10:12;;;;;;;0.20;0.10;;;;;;;;;;5027990;28;20080;-79
2022/12/21 01:12:38;;;;;;;0.20;0.10;;;;;;;;;;5013148;28;20040;-78
2022/12/21 01:15:05;;;;;;;0.20;0.10;;;;;;;;;;5013877;28;20067;-78
2022/12/21 01:17:31;;;;;;;0.20;0.10;;;;;;;;;;5016770;28;20045;-78
2022/12/21 01:19:57;;;;;;;0.20;0.10;;;;;;;;;;5008910;28;20377;-79
2022/12/21 01:22:23;;;;;;;0.20;0.10;;;;;;;;;;5008447;28;20042;-79
2022/12/21 01:24:49;;;;;;;0.20;0.10;;;;;;;;;;5031090;28;20392;-77
2022/12/21 01:27:15;;;;;;;0.20;0.10;;;;;;;;;;5031414;28;20372;-79
2022/12/21 01:29:41;;;;;;;0.20;0.10;;;;;;;;;;5027947;28;20038;-79
2022/12/21 01:32:07;;;;;;;0.20;0.10;;;;;;;;;;5023498;28;20171;-79
2022/12/21 01:34:33;;;;;;;0.20;0.10;;;;;;;;;;5023491;28;20033;-78
2022/12/21 01:36:59;;;;;;;0.20;0.10;;;;;;;;;;5025697;28;20033;-78
2022/12/21 01:39:25;;;;;;;0.20;0.10;;;;;;;;;;5027526;28;20495;-79
2022/12/21 01:41:51;;;;;;;0.20;0.10;;;;;;;;;;5005295;28;20041;-78
2022/12/21 01:44:36;;;;;;;0.20;0.20;;;;;;;;;;5023544;28;20500;-79
2022/12/21 01:47:02;;;;;;;0.20;0.10;;;;;;;;;;5025789;28;20133;-78
2022/12/21 01:49:31;;;;;;;0.20;0.20;;;;;;;;;;5005710;28;20037;-76
2022/12/21 01:52:02;;;;;;;0.30;0.20;;;;;;;;;;5024529;28;20041;-79
2022/12/21 01:54:33;;;;;;;2.28;0.25;;;;;;;;;;5006402;28;20046;-79
2022/12/21 01:57:00;;;;;;;1.17;0.95;;;;;;;;;;5022346;28;20067;-78
2022/12/21 01:59:29;;;;;;;0.85;0.65;;;;;;;;;;5016769;28;20041;-77
2022/12/21 02:01:55;;;;;;;3.83;1.30;;;;;;;;;;5022763;28;20041;-78
2022/12/21 02:04:21;;;;;;;0.40;0.30;;;;;;;;;;5024135;28;20045;-78
2022/12/21 02:06:57;;;;;;;0.20;0.10;;;;;;;;;;5005040;28;20041;-78
2022/12/21 02:09:24;;;;;;;0.20;0.10;;;;;;;;;;5005528;28;20063;-78
2022/12/21 02:11:51;;;;;;;0.43;0.43;;;;;;;;;;5022010;28;20049;-79
2022/12/21 02:14:17;;;;;;;0.20;0.10;;;;;;;;;;5029681;28;20680;-78
2022/12/21 02:16:53;;;;;;;0.20;0.10;;;;;;;;;;5024578;28;20416;-79
2022/12/21 02:19:22;;;;;;;0.20;0.20;;;;;;;;;;5032206;28;20049;-79
2022/12/21 02:21:52;;;;;;;0.60;0.30;;;;;;;;;;5021225;28;20041;-78
2022/12/21 02:24:42;;;;;;;0.20;0.10;;;;;;;;;;5020330;28;20029;-79
2022/12/21 02:27:08;;;;;;;0.20;0.10;;;;;;;;;;5018716;28;20116;-79
2022/12/21 02:29:37;;;;;;;0.20;0.10;;;;;;;;;;5020200;28;20579;-79
2022/12/21 02:32:21;;;;;;;0.20;0.10;;;;;;;;;;5019580;28;20463;-78
2022/12/21 02:34:50;;;;;;;0.20;0.15;;;;;;;;;;5017491;28;20033;-79
2022/12/21 02:37:19;;;;;;;0.20;0.10;;;;;;;;;;5034100;28;20045;-79
2022/12/21 02:39:45;;;;;;;0.20;0.10;;;;;;;;;;5023135;28;20456;-79
2022/12/21 02:44:12;;;;;;;0.20;0.10;;;;;;;;;;5003257;28;20569;-80
2022/12/21 02:45:05;;;;;;;0.20;0.10;;;;;;;;;;5023687;28;20614;-80
2022/12/21 02:47:45;;;;;;;0.22;0.22;;;;;;;;;;5019443;28;20041;-79
2022/12/21 02:50:15;;;;;;;0.20;0.10;;;;;;;;;;5024728;28;20050;-80
2022/12/21 02:52:50;;;;;;;0.20;0.10;;;;;;;;;;5018397;28;20048;-80
2022/12/21 02:55:16;;;;;;;0.20;0.10;;;;;;;;;;5004166;28;20415;-79
2022/12/21 02:57:44;;;;;;;0.20;0.05;;;;;;;;;;5003372;28;20051;-78
2022/12/21 03:00:30;;;;;;;0.20;0.10;;;;;;;;;;5015811;28;20041;-79
2022/12/21 03:06:22;;;;;;;0.20;0.10;;;;;;;;;;4994771;28;20037;-80
2022/12/21 03:09:07;;;;;;;0.20;0.10;;;;;;;;;;5016873;28;20076;-79
2022/12/21 03:11:52;;;;;;;0.20;0.10;;;;;;;;;;4996019;28;20076;-79
2022/12/21 03:14:26;;;;;;;0.35;0.20;;;;;;;;;;5018873;28;20041;-79
2022/12/21 03:16:53;;;;;;;0.20;0.10;;;;;;;;;;5013886;28;20037;-79
2022/12/21 03:19:25;;;;;;;0.20;0.10;;;;;;;;;;5020637;28;20056;-80
2022/12/21 03:22:11;;;;;;;0.20;0.10;;;;;;;;;;5026808;28;20033;-80
2022/12/21 03:24:40;;;;;;;0.45;0.38;;;;;;;;;;5024603;28;20041;-80
2022/12/21 03:27:13;;;;;;;0.20;0.10;;;;;;;;;;5012204;28;20526;-80
2022/12/21 03:29:43;;;;;;;0.20;0.10;;;;;;;;;;4992980;28;20588;-80
2022/12/21 03:32:14;;;;;;;0.55;0.32;;;;;;;;;;5025063;28;20105;-79
2022/12/21 03:34:43;;;;;;;1.00;0.63;;;;;;;;;;5033889;28;20037;-79
2022/12/21 03:37:14;;;;;;;0.20;0.10;;;;;;;;;;5029667;28;20036;-79
2022/12/21 03:39:43;;;;;;;0.20;0.10;;;;;;;;;;5030890;28;20092;-79
2022/12/21 03:42:13;;;;;;;0.20;0.20;;;;;;;;;;5034347;28;20041;-79
2022/12/21 03:44:44;;;;;;;0.20;0.10;;;;;;;;;;5032959;28;20030;-80
2022/12/21 03:47:14;;;;;;;0.87;0.30;;;;;;;;;;5029775;28;20126;-80
2022/12/21 03:49:40;;;;;;;0.20;0.10;;;;;;;;;;5035646;28;20044;-80
2022/12/21 03:52:08;;;;;;;0.47;0.20;;;;;;;;;;5015844;28;20045;-80
2022/12/21 03:54:40;;;;;;;0.20;0.10;;;;;;;;;;5006744;28;20038;-79
2022/12/21 03:57:07;;;;;;;0.20;0.10;;;;;;;;;;5031055;28;20037;-79
2022/12/21 03:59:33;;;;;;;0.20;0.10;;;;;;;;;;5009454;28;20296;-79
2022/12/21 04:01:59;;;;;;;0.20;0.00;;;;;;;;;;5000966;28;20077;-79
2022/12/21 04:04:31;;;;;;;0.20;0.10;;;;;;;;;;5029626;28;20108;-80
2022/12/21 04:06:59;;;;;;;0.50;0.50;;;;;;;;;;5025756;28;20545;-80
2022/12/21 04:09:25;;;;;;;0.52;0.40;;;;;;;;;;5025790;28;20556;-79
2022/12/21 04:14:36;;;;;;;0.20;0.10;;;;;;;;;;5026122;28;20551;-79
2022/12/21 04:17:02;;;;;;;7.03;0.40;;;;;;;;;;5007812;28;20041;-79
2022/12/21 04:28:06;;;;;;;0.20;0.10;;;;;;;;;;5022175;28;20106;-77
2022/12/21 04:30:28;;;;;;;0.30;0.20;;;;;;;;;;5027722;28;20040;-77
2022/12/21 04:32:54;;;;;;;0.20;0.10;;;;;;;;;;5027242;28;20496;-78
2022/12/21 04:35:20;;;;;;;0.20;0.10;;;;;;;;;;5025245;28;20060;-76
2022/12/21 04:37:46;;;;;;;0.20;0.10;;;;;;;;;;5007656;28;20034;-77
2022/12/21 04:40:12;;;;;;;0.20;0.10;;;;;;;;;;5020438;28;20040;-77
2022/12/21 04:42:39;;;;;;;0.20;0.10;;;;;;;;;;5022298;28;20034;-77
2022/12/21 04:45:05;;;;;;;0.20;0.10;;;;;;;;;;5022150;28;20442;-77
2022/12/21 04:47:32;;;;;;;0.20;0.10;;;;;;;;;;5013580;28;20116;-78
2022/12/21 04:49:58;;;;;;;0.20;0.10;;;;;;;;;;4993425;28;20045;-78
2022/12/21 04:52:24;;;;;;;0.20;0.03;;;;;;;;;;5018333;28;20111;-78
2022/12/21 04:54:50;;;;;;;0.20;0.10;;;;;;;;;;5020789;28;20042;-79
2022/12/21 04:57:16;;;;;;;0.20;0.10;;;;;;;;;;4996973;28;20115;-78
2022/12/21 04:59:44;;;;;;;0.20;0.10;;;;;;;;;;5014881;28;20099;-79
2022/12/21 05:02:10;;;;;;;0.32;0.32;;;;;;;;;;5023121;28;20411;-78
2022/12/21 05:04:36;;;;;;;0.77;0.75;;;;;;;;;;5022202;28;20037;-78
2022/12/21 05:07:03;;;;;;;0.20;0.10;;;;;;;;;;5021545;28;20518;-79
2022/12/21 05:09:29;;;;;;;0.20;0.10;;;;;;;;;;5021010;28;20077;-78
2022/12/21 05:11:55;;;;;;;0.20;0.20;;;;;;;;;;5005533;28;20041;-78
2022/12/21 05:14:21;;;;;;;0.30;0.30;;;;;;;;;;5020688;28;20084;-77
2022/12/21 05:16:47;;;;;;;0.93;0.93;;;;;;;;;;5016266;28;20128;-79
2022/12/21 05:19:13;;;;;;;0.20;0.10;;;;;;;;;;5007159;28;20096;-79
2022/12/21 05:21:39;;;;;;;0.40;0.38;;;;;;;;;;5022709;28;20069;-78
2022/12/21 05:24:06;;;;;;;0.30;0.30;;;;;;;;;;5012531;28;20038;-79
2022/12/21 05:26:32;;;;;;;0.20;0.10;;;;;;;;;;5018891;28;20047;-78
2022/12/21 05:28:58;;;;;;;0.30;0.30;;;;;;;;;;5007861;28;20025;-79
2022/12/21 05:31:24;;;;;;;0.20;0.20;;;;;;;;;;5005127;28;20045;-78
2022/12/21 05:33:50;;;;;;;0.22;0.22;;;;;;;;;;5009244;23;20417;-84
2022/12/21 05:36:17;;;;;;;1.00;0.90;;;;;;;;;;5053937;28;20526;-85
2022/12/21 05:38:43;;;;;;;0.57;0.20;;;;;;;;;;5023390;28;20041;-85
2022/12/21 05:41:11;;;;;;;0.95;0.80;;;;;;;;;;5019569;28;20041;-85
2022/12/21 05:43:37;;;;;;;1.20;0.95;;;;;;;;;;5021238;28;20399;-85
2022/12/21 05:46:04;;;;;;;0.60;0.50;;;;;;;;;;5016068;28;20069;-85
2022/12/21 05:48:30;;;;;;;0.20;0.20;;;;;;;;;;5021925;28;20083;-84
2022/12/21 05:50:57;;;;;;;0.20;0.10;;;;;;;;;;5002650;28;20047;-84
2022/12/21 05:53:23;;;;;;;0.30;0.30;;;;;;;;;;4999537;28;20041;-84
2022/12/21 05:55:51;;;;;;;0.73;0.68;;;;;;;;;;5018608;28;20050;-84
2022/12/21 05:58:18;;;;;;;0.20;0.10;;;;;;;;;;5016663;28;20502;-83
2022/12/21 06:00:45;;;;;;;0.20;0.10;;;;;;;;;;4995418;28;20083;-85
2022/12/21 06:03:11;;;;;;;0.65;0.65;;;;;;;;;;5020070;28;20030;-84
2022/12/21 06:05:37;;;;;;;0.20;0.20;;;;;;;;;;4997065;28;20306;-84
2022/12/21 06:08:03;;;;;;;0.40;0.20;;;;;;;;;;4995520;28;20496;-85
2022/12/21 06:10:29;;;;;;;0.63;0.63;;;;;;;;;;5030438;28;20117;-85
2022/12/21 06:12:55;;;;;;;0.45;0.30;;;;;;;;;;5016790;28;20064;-86
2022/12/21 06:15:21;;;;;;;0.20;0.10;;;;;;;;;;5020263;28;20146;-83
2022/12/21 06:17:47;;;;;;;0.20;0.10;;;;;;;;;;5019212;28;20057;-84
2022/12/21 06:20:15;;;;;;;0.30;0.30;;;;;;;;;;5024105;28;20122;-83
2022/12/21 06:22:41;;;;;;;0.20;0.10;;;;;;;;;;5025789;28;20107;-84
2022/12/21 06:25:08;;;;;;;0.80;0.80;;;;;;;;;;5002506;28;20103;-85
2022/12/21 06:27:34;;;;;;;1.38;1.27;;;;;;;;;;5018419;28;20518;-85
2022/12/21 06:30:00;;;;;;;0.90;0.90;;;;;;;;;;5018236;28;20037;-84
2022/12/21 06:32:26;;;;;;;12.90;1.00;;;;;;;;;;5020046;28;20104;-86
2022/12/21 06:34:52;;;;;;;2.70;1.33;;;;;;;;;;5029853;28;20454;-84
2022/12/21 06:37:18;;;;;;;0.35;0.30;;;;;;;;;;4999883;28;20033;-84
2022/12/21 06:39:44;;;;;;;0.40;0.40;;;;;;;;;;5017985;28;20289;-84
2022/12/21 06:42:10;;;;;;;0.95;0.57;;;;;;;;;;5019298;28;20064;-85
2022/12/21 06:44:36;;;;;;;0.22;0.15;;;;;;;;;;5051766;28;20033;-84
2022/12/21 06:47:02;;;;;;;0.20;0.10;;;;;;;;;;5017534;28;20038;-84
2022/12/21 06:49:28;;;;;;;0.20;0.10;;;;;;;;;;5014739;28;20033;-85
2022/12/21 06:51:54;;;;;;;0.20;0.10;;;;;;;;;;5011504;28;20119;-84
2022/12/21 06:54:20;;;;;;;0.57;0.30;;;;;;;;;;5011259;28;20126;-84
2022/12/21 06:56:46;;;;;;;2.05;0.57;;;;;;;;;;5016179;28;20183;-84
2022/12/21 06:59:12;;;;;;;0.68;0.60;;;;;;;;;;5014754;28;21902;-85
2022/12/21 07:01:38;;;;;;;0.43;0.40;;;;;;;;;;5012372;28;20057;-84
2022/12/21 07:04:04;;;;;;;0.20;0.20;;;;;;;;;;5013306;28;20443;-85
2022/12/21 07:06:31;;;;;;;0.20;0.10;;;;;;;;;;5001124;28;20033;-84
2022/12/21 07:08:57;;;;;;;0.93;0.43;;;;;;;;;;5020209;28;20044;-85
2022/12/21 07:11:24;;;;;;;0.22;0.13;;;;;;;;;;4999603;28;20042;-84
2022/12/21 07:13:52;;;;;;;2.28;0.63;;;;;;;;;;5002188;28;20159;-84
2022/12/21 07:16:18;;;;;;;0.20;0.10;;;;;;;;;;5013639;28;20095;-84
2022/12/21 07:18:44;;;;;;;0.20;0.10;;;;;;;;;;5021176;28;20104;-83
2022/12/21 07:21:12;;;;;;;3.10;0.90;;;;;;;;;;5017712;28;20042;-85
2022/12/21 07:23:39;;;;;;;0.20;0.10;;;;;;;;;;5002082;28;20030;-84
2022/12/21 07:26:06;;;;;;;0.90;0.35;;;;;;;;;;5019481;28;20034;-84
2022/12/21 07:28:32;;;;;;;0.20;0.10;;;;;;;;;;5021916;28;20123;-86
2022/12/21 07:31:08;;;;;;;0.52;0.38;;;;;;;;;;5021539;28;20072;-84
2022/12/21 07:33:35;;;;;;;0.20;0.10;;;;;;;;;;5002698;28;20041;-84
2022/12/21 07:36:02;;;;;;;0.20;0.20;;;;;;;;;;5000033;28;20504;-83
2022/12/21 07:38:28;;;;;;;0.52;0.52;;;;;;;;;;5023429;28;20048;-85
2022/12/21 07:41:01;;;;;;;0.20;0.10;;;;;;;;;;5015798;28;20087;-84
2022/12/21 07:43:27;;;;;;;0.30;0.30;;;;;;;;;;4999377;28;20128;-83
2022/12/21 07:45:54;;;;;;;0.60;0.30;;;;;;;;;;5003527;28;20042;-84
2022/12/21 07:48:20;;;;;;;0.82;0.25;;;;;;;;;;5015399;28;20543;-86
2022/12/21 07:50:47;;;;;;;0.20;0.10;;;;;;;;;;5018353;28;20041;-85
2022/12/21 07:53:13;;;;;;;0.52;0.35;;;;;;;;;;5015392;28;20408;-84
2022/12/21 07:55:39;;;;;;;0.25;0.20;;;;;;;;;;5019445;28;20037;-86
2022/12/21 07:58:05;;;;;;;0.40;0.40;;;;;;;;;;5020755;28;20074;-85
2022/12/21 08:00:31;;;;;;;0.30;0.30;;;;;;;;;;5002418;28;20420;-83
2022/12/21 08:02:57;;;;;;;0.20;0.10;;;;;;;;;;5021637;28;20038;-84
2022/12/21 08:05:23;;;;;;;0.20;0.20;;;;;;;;;;5014602;28;20055;-83
2022/12/21 08:07:49;;;;;;;0.30;0.30;;;;;;;;;;5018366;28;20786;-84
2022/12/21 08:10:16;;;;;;;0.65;0.25;;;;;;;;;;5016997;28;20049;-85
2022/12/21 08:12:42;;;;;;;0.47;0.47;;;;;;;;;;5001852;28;20446;-84
2022/12/21 08:15:08;;;;;;;0.20;0.10;;;;;;;;;;4996157;28;20566;-86
2022/12/21 08:17:34;;;;;;;0.63;0.63;;;;;;;;;;5014310;28;20052;-86
2022/12/21 08:20:00;;;;;;;0.20;0.20;;;;;;;;;;5016652;28;20037;-84
2022/12/21 08:22:26;;;;;;;0.20;0.10;;;;;;;;;;5000107;28;20030;-82
2022/12/21 08:24:52;;;;;;;0.20;0.10;;;;;;;;;;5016341;28;20060;-86
2022/12/21 08:27:18;;;;;;;1.17;0.35;;;;;;;;;;5016873;28;20095;-85
2022/12/21 08:29:44;;;;;;;2.25;1.05;;;;;;;;;;5018494;28;20061;-86
2022/12/21 08:32:10;;;;;;;3.63;0.55;;;;;;;;;;5021302;28;20092;-84
2022/12/21 08:34:36;;;;;;;0.20;0.10;;;;;;;;;;5018935;28;20531;-84
2022/12/21 08:37:02;;;;;;;0.20;0.10;;;;;;;;;;5000755;28;20144;-86
2022/12/21 08:39:28;;;;;;;0.50;0.50;;;;;;;;;;5018450;28;20063;-85
2022/12/21 08:41:55;;;;;;;0.30;0.30;;;;;;;;;;5029555;28;20077;-85
2022/12/21 08:44:21;;;;;;;0.20;0.10;;;;;;;;;;5017996;28;21515;-84
2022/12/21 08:46:47;;;;;;;0.20;0.20;;;;;;;;;;4999795;28;20052;-85
2022/12/21 08:49:13;;;;;;;0.20;0.10;;;;;;;;;;5015295;28;20033;-85
2022/12/21 08:51:39;;;;;;;2.20;1.95;;;;;;;;;;5010066;28;20333;-83
2022/12/21 08:54:08;;;;;;;0.20;0.10;;;;;;;;;;5014215;28;20045;-84
2022/12/21 08:56:34;;;;;;;4.13;0.40;;;;;;;;;;5004671;28;20038;-86
2022/12/21 08:59:05;;;;;;;1.27;0.95;;;;;;;;;;5019842;28;20048;-85
2022/12/21 09:01:31;;;;;;;1.80;0.65;;;;;;;;;;5017163;28;21023;-84
2022/12/21 09:03:57;;;;;;;0.40;0.40;;;;;;;;;;5020218;28;20091;-83
2022/12/21 09:06:23;;;;;;;0.30;0.30;;;;;;;;;;5004649;28;20041;-83
2022/12/21 09:08:50;;;;;;;0.38;0.20;;;;;;;;;;5020759;28;20037;-84
2022/12/21 09:11:17;;;;;;;1.65;1.42;;;;;;;;;;5021128;28;20138;-84
2022/12/21 09:13:43;;;;;;;0.73;0.40;;;;;;;;;;5003260;28;20450;-83
2022/12/21 09:16:17;;;;;;;0.30;0.20;;;;;;;;;;5000771;28;20550;-85
2022/12/21 09:18:56;;;;;;;0.30;0.30;;;;;;;;;;5138613;27;20189;-85
2022/12/21 09:21:23;;;;;;;2.28;0.68;;;;;;;;;;5115545;27;20201;-84
2022/12/21 09:23:51;;;;;;;0.20;0.10;;;;;;;;;;5140273;27;20039;-83
2022/12/21 09:26:17;;;;;;;0.63;0.45;;;;;;;;;;5135606;27;20030;-83
2022/12/21 09:31:18;;;;;;;0.20;0.10;;;;;;;;;;5096118;28;20062;-77
2022/12/21 09:33:44;;;;;;;1.60;0.75;;;;;;;;;;5074168;28;20036;-80
2022/12/21 09:36:11;;;;;;;1.98;1.05;;;;;;;;;;5076815;28;20410;-78
2022/12/21 09:38:37;;;;;;;0.65;0.65;;;;;;;;;;5096133;28;20324;-78
2022/12/21 09:41:06;;;;;;;0.32;0.32;;;;;;;;;;5080844;28;20035;-78
2022/12/21 09:43:32;;;;;;;0.20;0.20;;;;;;;;;;5084390;28;20040;-77
2022/12/21 09:46:06;;;;;;;0.20;0.10;;;;;;;;;;5081893;28;20042;-78
2022/12/21 09:48:56;;;;;;;1.70;1.60;;;;;;;;;;5082766;28;20047;-79
2022/12/21 09:51:23;;;;;;;0.20;0.20;;;;;;;;;;5074137;28;20056;-79
2022/12/21 09:54:00;;;;;;;0.30;0.30;;;;;;;;;;5068011;28;20478;-80
2022/12/21 09:56:27;;;;;;;0.30;0.30;;;;;;;;;;5083984;28;20097;-80
2022/12/21 09:58:54;;;;;;;1.23;1.00;;;;;;;;;;5089346;28;20062;-80
2022/12/21 10:01:32;;;;;;;0.25;0.20;;;;;;;;;;5098442;28;20062;-79
2022/12/21 10:03:58;;;;;;;2.00;0.55;;;;;;;;;;5079787;28;20486;-80
2022/12/21 10:06:30;;;;;;;0.60;0.60;;;;;;;;;;5100391;28;20379;-80
2022/12/21 10:09:35;;;;;;;0.70;0.70;;;;;;;;;;5059774;28;20409;-79
2022/12/21 10:12:16;;;;;;;0.20;0.17;;;;;;;;;;5003986;28;20129;-79
2022/12/21 10:15:01;;;;;;;0.50;0.50;;;;;;;;;;5018197;28;20033;-79
2022/12/21 10:17:30;;;;;;;0.85;0.77;;;;;;;;;;5066398;28;20674;-79
2022/12/21 10:20:05;;;;;;;0.40;0.30;;;;;;;;;;5062666;28;20036;-80
2022/12/21 10:22:51;;;;;;;0.20;0.10;;;;;;;;;;5100220;28;20085;-80
2022/12/21 10:25:19;;;;;;;0.77;0.77;;;;;;;;;;5103031;28;20551;-80
2022/12/21 10:28:06;;;;;;;1.15;0.57;;;;;;;;;;5083281;28;20036;-80
2022/12/21 10:30:33;;;;;;;2.42;1.08;;;;;;;;;;5042276;28;20067;-80
2022/12/21 10:32:59;;;;;;;0.80;0.80;;;;;;;;;;5062198;28;20070;-80
2022/12/21 10:35:32;;;;;;;0.20;0.20;;;;;;;;;;5044068;28;20048;-79
2022/12/21 10:37:59;;;;;;;6.15;0.75;;;;;;;;;;5045458;28;20079;-80
2022/12/21 10:40:30;;;;;;;1.38;1.00;;;;;;;;;;5066468;28;20066;-80
2022/12/21 10:42:57;;;;;;;0.43;0.43;;;;;;;;;;5044437;28;20507;-80
2022/12/21 10:45:23;;;;;;;0.35;0.25;;;;;;;;;;5060387;28;20037;-82
2022/12/21 10:47:49;;;;;;;0.50;0.50;;;;;;;;;;5059394;28;20109;-79
2022/12/21 10:50:15;;;;;;;5.05;1.95;;;;;;;;;;5045536;28;20506;-79
2022/12/21 10:52:43;;;;;;;0.55;0.55;;;;;;;;;;5054906;28;20167;-81
2022/12/21 10:55:32;;;;;;;0.20;0.20;;;;;;;;;;5048428;28;20032;-80
2022/12/21 10:58:02;;;;;;;0.30;0.20;;;;;;;;;;5052556;28;20045;-80
2022/12/21 11:00:32;;;;;;;0.85;0.82;;;;;;;;;;5064128;28;20418;-80
2022/12/21 11:03:02;;;;;;;0.30;0.30;;;;;;;;;;5072912;28;20100;-80
2022/12/21 11:05:30;;;;;;;0.20;0.20;;;;;;;;;;5047280;28;20044;-80
2022/12/21 11:08:14;;;;;;;0.60;0.32;;;;;;;;;;5052779;28;20048;-79
2022/12/21 11:10:46;;;;;;;0.20;0.10;;;;;;;;;;5056707;28;20052;-80
2022/12/21 11:13:13;;;;;;;1.17;0.80;;;;;;;;;;5062377;28;20037;-80
2022/12/21 11:15:39;;;;;;;0.80;0.63;;;;;;;;;;5058409;28;20320;-80
2022/12/21 11:18:06;;;;;;;0.30;0.20;;;;;;;;;;5041230;28;20045;-80
2022/12/21 11:20:32;;;;;;;0.20;0.20;;;;;;;;;;5065083;28;20044;-80
2022/12/21 11:23:02;;;;;;;1.08;0.70;;;;;;;;;;5055590;28;20059;-79
2022/12/21 11:25:29;;;;;;;2.92;1.27;;;;;;;;;;5066186;28;20036;-81
2022/12/21 11:27:56;;;;;;;0.45;0.30;;;;;;;;;;5063594;28;20048;-78
2022/12/21 11:30:25;;;;;;;0.68;0.40;;;;;;;;;;5079327;28;20045;-80
2022/12/21 11:32:52;;;;;;;1.95;0.85;;;;;;;;;;5065316;28;20615;-80
2022/12/21 11:35:18;;;;;;;0.20;0.10;;;;;;;;;;5063969;28;20043;-80
2022/12/21 11:37:46;;;;;;;0.55;0.55;;;;;;;;;;5064901;28;20581;-80
2022/12/21 11:40:12;;;;;;;0.20;0.10;;;;;;;;;;5057132;28;20067;-80
2022/12/21 11:42:58;;;;;;;0.25;0.25;;;;;;;;;;5055607;28;20515;-79
2022/12/21 11:45:25;;;;;;;2.55;0.30;;;;;;;;;;5052010;28;20056;-79
2022/12/21 11:48:05;;;;;;;0.60;0.60;;;;;;;;;;5042356;28;20060;-77
2022/12/21 11:50:37;;;;;;;0.30;0.20;;;;;;;;;;5045289;28;20041;-79
2022/12/21 11:53:11;;;;;;;2.35;0.60;;;;;;;;;;5061650;28;20044;-79
2022/12/21 11:55:43;;;;;;;0.20;0.10;;;;;;;;;;5071635;28;20071;-80
2022/12/21 11:58:27;;;;;;;0.70;0.70;;;;;;;;;;5069121;28;20051;-78
2022/12/21 12:01:02;;;;;;;1.90;0.85;;;;;;;;;;5061640;28;20036;-79
2022/12/21 12:03:40;;;;;;;0.95;0.90;;;;;;;;;;5064716;28;20385;-79
2022/12/21 12:06:25;;;;;;;1.35;0.95;;;;;;;;;;5067133;28;20047;-81
2022/12/21 12:09:02;;;;;;;0.28;0.28;;;;;;;;;;5067182;28;20036;-79
2022/12/21 12:11:42;;;;;;;0.30;0.30;;;;;;;;;;5064682;28;20098;-79
2022/12/21 12:14:29;;;;;;;2.90;0.47;;;;;;;;;;5065177;28;20084;-79
2022/12/21 12:17:14;;;;;;;8.05;2.03;;;;;;;;;;5074021;28;20498;-80
2022/12/21 12:19:48;;;;;;;0.50;0.50;;;;;;;;;;5048161;28;20079;-80
2022/12/21 12:22:23;;;;;;;1.35;0.88;;;;;;;;;;5063106;28;20048;-79
2022/12/21 12:25:22;;;;;;;0.30;0.30;;;;;;;;;;5064466;28;20461;-79
2022/12/21 12:27:51;;;;;;;1.75;1.33;;;;;;;;;;4997430;28;20360;-80
2022/12/21 12:30:20;;;;;;;0.30;0.30;;;;;;;;;;5064799;28;20056;-79
2022/12/21 12:32:46;;;;;;;0.20;0.20;;;;;;;;;;5050314;28;20055;-79
2022/12/21 12:35:12;;;;;;;1.00;0.90;;;;;;;;;;5026211;28;21315;-80
2022/12/21 12:38:03;;;;;;;0.50;0.50;;;;;;;;;;5059909;28;20068;-80
2022/12/21 12:40:35;;;;;;;1.58;0.95;;;;;;;;;;5048589;28;20372;-79
2022/12/21 12:43:20;;;;;;;0.47;0.47;;;;;;;;;;5060655;28;21368;-79
2022/12/21 12:45:50;;;;;;;0.77;0.43;;;;;;;;;;5027082;28;20093;-79
2022/12/21 12:48:35;;;;;;;0.73;0.25;;;;;;;;;;5045449;28;20068;-80
2022/12/21 12:51:21;;;;;;;0.73;0.73;;;;;;;;;;5062037;28;20466;-79
2022/12/21 12:53:51;;;;;;;0.20;0.10;;;;;;;;;;5044772;28;20511;-79
2022/12/21 12:56:24;;;;;;;0.28;0.25;;;;;;;;;;5028443;28;20036;-79
2022/12/21 12:59:00;;;;;;;0.40;0.40;;;;;;;;;;5059110;28;20055;-79
2022/12/21 13:01:36;;;;;;;2.05;0.85;;;;;;;;;;5042255;28;20074;-79
2022/12/21 13:04:14;;;;;;;0.38;0.35;;;;;;;;;;5036164;28;20041;-78
2022/12/21 13:06:49;;;;;;;0.20;0.15;;;;;;;;;;5044084;28;20040;-79
2022/12/21 13:09:26;;;;;;;0.95;0.93;;;;;;;;;;5041258;28;20104;-78
2022/12/21 13:12:04;;;;;;;0.80;0.80;;;;;;;;;;5049185;28;20036;-80
2022/12/21 13:14:35;;;;;;;1.27;0.52;;;;;;;;;;5047827;28;20091;-78
2022/12/21 13:17:11;;;;;;;0.60;0.57;;;;;;;;;;5043421;28;20044;-79
2022/12/21 13:19:39;;;;;;;4.78;1.05;;;;;;;;;;5045484;28;20043;-78
2022/12/21 13:22:06;;;;;;;0.47;0.47;;;;;;;;;;5044575;28;20032;-78
2022/12/21 13:24:37;;;;;;;0.30;0.30;;;;;;;;;;5044208;28;20033;-81
2022/12/21 13:27:07;;;;;;;0.60;0.38;;;;;;;;;;5040487;28;20050;-78
2022/12/21 13:29:33;;;;;;;0.40;0.40;;;;;;;;;;5038133;28;20052;-81
2022/12/21 13:31:59;;;;;;;1.40;1.13;;;;;;;;;;5022937;28;20124;-78
2022/12/21 13:34:35;;;;;;;7.95;0.93;;;;;;;;;;5040289;28;20074;-77
2022/12/21 13:37:06;;;;;;;1.45;1.23;;;;;;;;;;5043925;28;20086;-79
2022/12/21 13:39:34;;;;;;;0.60;0.60;;;;;;;;;;5023703;28;20032;-78
2022/12/21 13:42:07;;;;;;;2.33;0.57;;;;;;;;;;5064607;28;20125;-79
2022/12/21 13:44:34;;;;;;;0.20;0.13;;;;;;;;;;5068853;28;20057;-80
2022/12/21 13:47:01;;;;;;;12.20;1.52;;;;;;;;;;5065262;28;20059;-80
2022/12/21 13:49:48;;;;;;;0.57;0.57;;;;;;;;;;5029494;28;20044;-79
2022/12/21 13:52:18;;;;;;;0.55;0.50;;;;;;;;;;5059238;28;20549;-79
2022/12/21 13:54:53;;;;;;;0.38;0.38;;;;;;;;;;5041509;28;20522;-79
2022/12/21 13:57:25;;;;;;;0.55;0.55;;;;;;;;;;5023268;28;20194;-78
2022/12/21 13:59:52;;;;;;;0.25;0.25;;;;;;;;;;5026949;28;20058;-80
2022/12/21 14:02:37;;;;;;;0.20;0.20;;;;;;;;;;5042085;28;20574;-79
2022/12/21 14:05:08;;;;;;;1.27;0.35;;;;;;;;;;5023432;28;20158;-79
2022/12/21 14:07:37;;;;;;;0.20;0.20;;;;;;;;;;5032633;28;20483;-79
2022/12/21 14:10:03;;;;;;;0.95;0.65;;;;;;;;;;5029321;28;20095;-78
2022/12/21 14:12:29;;;;;;;0.38;0.38;;;;;;;;;;5031105;28;20052;-79
2022/12/21 14:14:55;;;;;;;0.73;0.65;;;;;;;;;;5067231;28;20066;-78
2022/12/21 14:17:24;;;;;;;0.30;0.30;;;;;;;;;;5051486;28;20062;-79
2022/12/21 14:19:52;;;;;;;0.60;0.60;;;;;;;;;;5035599;28;20087;-78
2022/12/21 14:22:30;;;;;;;0.70;0.70;;;;;;;;;;5048884;28;20115;-81
2022/12/21 14:25:00;;;;;;;0.65;0.65;;;;;;;;;;5045703;28;20037;-79
2022/12/21 14:27:26;;;;;;;0.70;0.47;;;;;;;;;;5049775;28;20044;-79
2022/12/21 14:30:03;;;;;;;0.85;0.85;;;;;;;;;;5038657;28;20048;-79
2022/12/21 14:32:29;;;;;;;0.30;0.30;;;;;;;;;;5046542;28;20070;-79
2022/12/21 14:35:00;;;;;;;1.55;1.45;;;;;;;;;;5058380;28;20079;-79
2022/12/21 14:37:30;;;;;;;0.20;0.10;;;;;;;;;;5069721;28;20037;-80
2022/12/21 14:39:59;;;;;;;0.30;0.30;;;;;;;;;;5045974;28;20068;-79
2022/12/21 14:42:40;;;;;;;0.45;0.30;;;;;;;;;;5052354;28;20040;-79
2022/12/21 14:45:09;;;;;;;0.30;0.25;;;;;;;;;;5063478;28;20028;-80
2022/12/21 14:47:36;;;;;;;0.35;0.35;;;;;;;;;;5074498;28;20054;-80
2022/12/21 14:50:21;;;;;;;0.20;0.10;;;;;;;;;;5071188;28;20083;-78
2022/12/21 14:53:04;;;;;;;1.38;0.95;;;;;;;;;;5043376;28;20096;-79
2022/12/21 14:55:35;;;;;;;0.63;0.63;;;;;;;;;;5047615;28;20165;-77
2022/12/21 14:58:01;;;;;;;0.68;0.50;;;;;;;;;;5049155;28;20072;-78
2022/12/21 15:00:28;;;;;;;0.40;0.40;;;;;;;;;;5048629;28;20041;-76
2022/12/21 15:03:13;;;;;;;0.50;0.50;;;;;;;;;;5042152;28;20086;-77
2022/12/21 15:05:43;;;;;;;0.22;0.22;;;;;;;;;;5060362;28;20760;-76
2022/12/21 15:08:17;;;;;;;0.20;0.20;;;;;;;;;;5041445;28;20463;-78
2022/12/21 15:10:43;;;;;;;0.40;0.40;;;;;;;;;;5047110;28;20044;-76
2022/12/21 15:13:24;;;;;;;0.63;0.32;;;;;;;;;;5044096;28;20379;-77
2022/12/21 15:16:06;;;;;;;0.22;0.22;;;;;;;;;;5064314;28;20123;-78